Time;durP1;ratioP1;P1;durP2;ratioP2;P2;SDS_P1;SDS_P2;PMS_P1;PMS_P2;Temp;Humidity;BMP_temperature;BMP_pressure;BME280_temperature;BME280_humidity;BME280_pressure;Samples;Min_cycle;Max_cycle;Signal;HPM_P1;HPM_P2
2022/02/27 07:16:15;;;;;;;8.33;4.53;;;;;;;4.79;53.77;100244.66;6854352;28;20691;-84
2022/02/27 07:19:37;;;;;;;10.23;7.10;;;;;;;4.25;51.88;100123.94;6885128;28;20621;-79
2022/02/27 07:22:59;;;;;;;11.80;6.47;;;;;;;5.07;51.95;100251.97;6873337;28;20309;-79
2022/02/27 07:26:20;;;;;;;10.57;5.50;;;;;;;5.33;50.47;100156.06;6860304;28;20239;-79
2022/02/27 07:29:42;;;;;;;10.43;5.20;;;;;;;5.98;49.47;100241.88;6840555;28;20236;-78
2022/02/27 07:33:05;;;;;;;8.37;5.50;;;;;;;6.66;49.78;100252.34;6852918;28;20237;-79
2022/02/27 07:36:27;;;;;;;12.47;6.33;;;;;;;7.09;48.35;100240.06;6851412;28;20257;-79
2022/02/27 07:39:49;;;;;;;9.27;6.70;;;;;;;6.54;50.83;100254.34;6847251;28;20313;-78
2022/02/27 07:43:10;;;;;;;13.83;6.23;;;;;;;6.24;52.61;100249.19;6867088;28;20218;-83
2022/02/27 07:46:32;;;;;;;12.50;6.97;;;;;;;6.19;51.22;100253.28;6867399;28;20256;-79
2022/02/27 07:49:55;;;;;;;12.00;7.13;;;;;;;5.65;52.77;100202.13;6867045;28;20542;-88
2022/02/27 07:53:17;;;;;;;12.57;7.23;;;;;;;6.50;52.10;100255.63;6866679;28;20208;-81
2022/02/27 07:56:39;;;;;;;10.10;7.30;;;;;;;6.37;51.88;100256.94;6867125;28;20212;-83
2022/02/27 08:00:00;;;;;;;10.63;7.13;;;;;;;6.56;51.05;100247.03;6866252;28;20240;-80
2022/02/27 08:03:22;;;;;;;7.87;6.30;;;;;;;6.95;50.96;100259.28;6866929;28;20678;-81
2022/02/27 08:06:45;;;;;;;14.97;7.40;;;;;;;6.47;52.08;100263.94;6866173;28;20261;-80
2022/02/27 08:10:07;;;;;;;9.63;7.30;;;;;;;6.62;50.00;100149.97;6866432;28;20216;-82
2022/02/27 08:13:29;;;;;;;11.37;6.70;;;;;;;7.47;49.76;100266.66;6866462;28;20215;-81
2022/02/27 08:16:50;;;;;;;12.90;7.77;;;;;;;7.47;49.44;100269.34;6866301;28;20691;-81
2022/02/27 08:20:13;;;;;;;13.93;7.03;;;;;;;6.74;50.84;100260.50;6865838;28;20240;-80
2022/02/27 08:23:36;;;;;;;11.93;7.00;;;;;;;6.88;52.08;100279.66;6866365;28;20227;-81
2022/02/27 08:26:58;;;;;;;9.57;7.10;;;;;;;7.20;49.37;100190.72;6878653;28;20598;-80
2022/02/27 08:30:19;;;;;;;8.07;6.40;;;;;;;7.43;49.19;100265.28;6865685;28;20209;-81
2022/02/27 08:33:41;;;;;;;11.87;6.83;;;;;;;7.54;48.10;100222.13;6865752;28;20209;-80
2022/02/27 08:37:03;;;;;;;9.10;6.63;;;;;;;7.64;49.73;100254.28;6865859;28;20205;-81
2022/02/27 08:40:26;;;;;;;11.43;8.00;;;;;;;7.92;48.96;100267.50;6865766;28;20574;-81
2022/02/27 08:43:48;;;;;;;8.00;6.27;;;;;;;8.80;46.40;100265.59;6865555;28;20734;-80
2022/02/27 08:47:09;;;;;;;11.67;6.20;;;;;;;7.97;46.19;100173.91;6865828;28;20213;-81
2022/02/27 08:50:31;;;;;;;15.37;6.70;;;;;;;8.89;46.69;100247.66;6865132;28;20213;-80
2022/02/27 08:53:53;;;;;;;10.73;6.83;;;;;;;8.23;45.53;100164.06;6865076;28;20248;-81
2022/02/27 08:57:16;;;;;;;8.97;5.53;;;;;;;9.61;44.77;100254.16;6865285;28;20236;-81
2022/02/27 09:00:37;;;;;;;8.23;6.07;;;;;;;9.03;44.18;100169.88;6865191;28;20220;-81
2022/02/27 09:03:59;;;;;;;10.57;6.17;;;;;;;9.15;44.10;100193.63;6865343;28;20213;-80
2022/02/27 09:08:04;;;;;;;6.60;5.47;;;;;;;10.34;42.61;100256.03;6864779;28;20256;-81
2022/02/27 09:11:26;;;;;;;8.80;5.80;;;;;;;12.18;38.84;100247.25;6864849;28;20656;-81
2022/02/27 09:14:49;;;;;;;8.07;5.60;;;;;;;12.07;37.84;100170.13;6863997;28;20213;-81
2022/02/27 09:18:11;;;;;;;10.07;5.87;;;;;;;10.53;42.19;100250.28;6863188;28;20213;-82
2022/02/27 09:21:33;;;;;;;7.13;5.40;;;;;;;11.52;37.40;100131.66;6840193;28;20214;-81
2022/02/27 09:24:55;;;;;;;10.17;4.53;;;;;;;12.61;36.71;100233.88;6836161;29;20285;-84
2022/02/27 09:28:17;;;;;;;6.77;4.67;;;;;;;10.33;38.69;100106.88;6856903;28;20218;-88
2022/02/27 09:31:40;;;;;;;5.83;4.57;;;;;;;10.51;39.23;100211.88;6835786;29;20203;-81
2022/02/27 09:35:03;;;;;;;5.17;4.43;;;;;;;9.77;41.22;100165.34;6836548;29;20214;-82
2022/02/27 09:38:25;;;;;;;7.60;5.50;;;;;;;10.29;41.01;100158.63;6852484;28;20221;-81
2022/02/27 09:41:47;;;;;;;6.60;4.63;;;;;;;10.70;39.41;100141.34;6862089;28;20217;-84
2022/02/27 09:45:09;;;;;;;8.30;4.47;;;;;;;11.17;38.96;100134.88;6862243;28;20232;-80
2022/02/27 09:48:32;;;;;;;7.07;4.13;;;;;;;12.13;36.57;100238.84;6862479;28;20217;-75
2022/02/27 09:51:54;;;;;;;7.90;4.63;;;;;;;11.52;37.67;100226.19;6861420;28;20228;-76
2022/02/27 09:55:17;;;;;;;8.77;4.43;;;;;;;11.16;38.03;100256.56;6861931;28;20201;-77
2022/02/27 09:58:41;;;;;;;7.17;4.17;;;;;;;10.76;39.15;100232.38;6862224;28;20261;-76
2022/02/27 10:02:05;;;;;;;5.87;3.90;;;;;;;11.30;37.96;100191.03;6861114;28;20220;-79
2022/02/27 10:05:28;;;;;;;6.70;4.10;;;;;;;11.62;36.80;100223.31;6861126;28;20229;-80
2022/02/27 10:08:57;;;;;;;6.10;4.73;;;;;;;10.72;37.06;100148.25;6861943;28;20227;-92
2022/02/27 10:12:20;;;;;;;5.70;4.60;;;;;;;10.70;37.38;100079.31;6862289;28;20220;-86
2022/02/27 10:15:42;;;;;;;6.10;4.60;;;;;;;10.39;36.05;100068.47;6860884;28;20234;-85
2022/02/27 10:19:06;;;;;;;4.30;3.53;;;;;;;11.31;35.88;100128.75;6861128;28;20229;-84
2022/02/27 10:22:34;;;;;;;4.80;4.00;;;;;;;9.36;37.41;100140.22;6861500;28;20212;-83
2022/02/27 10:25:57;;;;;;;4.97;4.30;;;;;;;9.49;36.63;100107.41;6861183;28;20255;-83
2022/02/27 10:29:21;;;;;;;6.63;3.53;;;;;;;10.46;35.59;100225.00;6861230;28;20220;-77
2022/02/27 10:32:47;;;;;;;6.60;3.73;;;;;;;10.34;35.54;100173.28;6860994;28;20201;-76
2022/02/27 10:36:09;;;;;;;4.57;3.90;;;;;;;10.48;36.67;100221.13;6861259;28;20296;-76
2022/02/27 10:39:39;;;;;;;5.50;4.07;;;;;;;12.04;33.04;100191.28;6861520;28;20209;-76
2022/02/27 10:43:01;;;;;;;4.73;3.60;;;;;;;12.04;33.42;100191.28;6860675;28;20586;-82
2022/02/27 10:46:27;;;;;;;4.07;3.33;;;;;;;12.76;31.51;100167.06;6861844;28;20233;-96
2022/02/27 10:49:56;;;;;;;5.97;3.70;;;;;;;13.64;29.37;100213.91;6865453;28;20223;-96
2022/02/27 10:53:17;;;;;;;4.73;2.80;;;;;;;13.28;29.86;100194.09;6860806;28;20265;-80
2022/02/27 10:56:46;;;;;;;3.93;3.30;;;;;;;12.63;31.45;100193.13;6859758;28;20221;-80
2022/02/27 11:00:17;;;;;;;4.43;3.80;;;;;;;11.22;32.12;100191.06;6860403;28;20211;-80
2022/02/27 11:03:39;;;;;;;5.50;4.00;;;;;;;11.20;31.11;100185.84;6860699;28;20220;-80
2022/02/27 11:07:02;;;;;;;3.50;3.20;;;;;;;10.59;31.33;100141.72;6859034;28;20234;-79
2022/02/27 11:10:25;;;;;;;3.47;3.17;;;;;;;11.28;32.00;100193.06;6841050;28;20233;-79
2022/02/27 11:13:49;;;;;;;6.20;3.70;;;;;;;10.87;31.67;100199.66;6859058;28;20272;-79
2022/02/27 11:17:11;;;;;;;5.63;4.10;;;;;;;10.63;31.45;100056.75;6859866;28;20230;-79
2022/02/27 11:20:36;;;;;;;5.87;3.90;;;;;;;11.22;31.59;100186.50;6856925;28;20240;-80
2022/02/27 11:23:58;;;;;;;7.33;3.67;;;;;;;12.12;31.36;100191.22;6859629;28;20265;-80
2022/02/27 11:27:27;;;;;;;3.87;3.30;;;;;;;10.80;33.38;100155.50;6860169;28;20225;-80
2022/02/27 11:30:53;;;;;;;4.53;4.13;;;;;;;11.58;33.06;100152.56;6859982;28;20213;-80
2022/02/27 11:34:16;;;;;;;4.20;3.80;;;;;;;10.88;33.06;100174.34;6860351;28;20233;-79
2022/02/27 11:37:48;;;;;;;5.33;3.60;;;;;;;10.88;33.35;100066.41;6860419;28;20205;-79
2022/02/27 11:41:12;;;;;;;4.50;4.03;;;;;;;10.77;32.87;100177.41;6859991;28;20267;-79
2022/02/27 11:44:35;;;;;;;3.53;3.23;;;;;;;11.69;31.56;100154.03;6859570;28;20588;-77
2022/02/27 11:47:58;;;;;;;4.00;3.57;;;;;;;11.62;31.15;100172.00;6859845;28;20224;-76
2022/02/27 11:51:41;;;;;;;4.10;3.70;;;;;;;11.49;30.82;100118.50;6859203;28;20225;-77
2022/02/27 11:55:07;;;;;;;6.20;3.60;;;;;;;10.98;31.45;100018.47;6859511;28;20232;-78
2022/02/27 11:58:44;;;;;;;4.83;3.00;;;;;;;11.29;31.83;100046.25;6859055;28;20225;-76
2022/02/27 12:02:06;;;;;;;5.03;3.30;;;;;;;11.82;31.30;100087.56;6859236;28;20565;-76
2022/02/27 12:05:44;;;;;;;5.13;4.53;;;;;;;11.77;30.27;100108.88;6864702;28;20593;-75
2022/02/27 12:09:12;;;;;;;4.20;3.70;;;;;;;11.83;32.43;100134.34;6865132;28;20221;-76
2022/02/27 12:12:53;;;;;;;6.57;4.17;;;;;;;11.77;31.68;100122.41;6864842;28;20545;-78
2022/02/27 12:16:15;;;;;;;4.63;3.57;;;;;;;12.59;31.53;100116.88;6864831;28;20230;-76
2022/02/27 12:19:36;;;;;;;4.50;3.40;;;;;;;12.96;29.57;100097.84;6864912;28;20308;-76
2022/02/27 12:22:59;;;;;;;3.60;3.30;;;;;;;12.69;29.54;100111.19;6864671;28;20225;-76
2022/02/27 12:26:52;;;;;;;3.90;3.43;;;;;;;12.91;29.60;100086.72;6864708;28;20235;-76
2022/02/27 12:30:18;;;;;;;4.87;3.53;;;;;;;12.96;29.40;100086.16;6864427;28;20216;-76
2022/02/27 12:33:40;;;;;;;5.40;4.00;;;;;;;11.90;29.55;99954.22;6864562;28;20209;-76
2022/02/27 12:37:03;;;;;;;4.50;3.10;;;;;;;11.80;29.51;100095.00;6863724;28;20221;-76
2022/02/27 12:40:26;;;;;;;3.83;3.50;;;;;;;12.67;29.11;100089.72;6864307;28;20214;-79
2022/02/27 12:43:48;;;;;;;3.80;3.40;;;;;;;11.89;30.07;100115.53;6864426;28;20237;-77
2022/02/27 12:47:12;;;;;;;3.73;3.33;;;;;;;11.69;30.12;100111.63;6863949;28;20234;-80
2022/02/27 12:50:43;;;;;;;4.03;3.40;;;;;;;11.99;30.11;99996.34;6864058;28;20209;-76
2022/02/27 12:54:11;;;;;;;4.13;3.43;;;;;;;13.21;29.51;100111.91;6865996;28;20185;-79
2022/02/27 12:57:34;;;;;;;4.00;3.60;;;;;;;11.49;31.68;100113.13;6862945;28;20288;-79
2022/02/27 13:00:56;;;;;;;4.07;3.70;;;;;;;10.77;32.34;100029.03;6863591;28;20224;-78
2022/02/27 13:04:18;;;;;;;4.50;3.43;;;;;;;11.81;31.70;100050.75;6862873;28;20221;-79
2022/02/27 13:07:40;;;;;;;5.07;3.77;;;;;;;11.64;31.56;100015.97;6864031;28;20234;-77
2022/02/27 13:11:02;;;;;;;4.07;3.67;;;;;;;12.48;30.57;100098.41;6863560;28;20201;-77
2022/02/27 13:14:26;;;;;;;4.40;4.00;;;;;;;11.41;32.35;100080.78;6863149;28;20216;-78
2022/02/27 13:17:49;;;;;;;6.77;3.90;;;;;;;11.97;30.56;100037.06;6864290;28;20204;-77
2022/02/27 13:21:11;;;;;;;4.37;3.70;;;;;;;11.08;32.09;100062.22;6863023;28;20219;-88
2022/02/27 13:24:34;;;;;;;5.10;3.60;;;;;;;10.82;31.96;99989.72;6863225;28;20702;-79
2022/02/27 13:27:56;;;;;;;3.97;3.57;;;;;;;11.96;30.71;100054.31;6863114;28;20229;-79
2022/02/27 13:31:20;;;;;;;5.70;3.70;;;;;;;11.41;32.20;100039.41;6862611;28;20295;-79
2022/02/27 13:34:42;;;;;;;6.10;3.77;;;;;;;11.34;30.81;100003.34;6862763;28;20610;-79
2022/02/27 13:38:05;;;;;;;5.27;3.50;;;;;;;11.33;30.56;99996.28;6862600;28;20227;-79
2022/02/27 13:41:28;;;;;;;4.90;3.07;;;;;;;12.26;29.82;100082.22;6862068;28;20248;-79
2022/02/27 13:44:50;;;;;;;4.37;3.37;;;;;;;12.49;28.97;99974.78;6862523;28;20218;-78
2022/02/27 13:48:15;;;;;;;3.63;3.33;;;;;;;12.90;28.17;100067.94;6862155;28;20271;-78
2022/02/27 13:51:37;;;;;;;4.90;3.30;;;;;;;11.64;29.91;100040.28;6862386;28;20213;-79
2022/02/27 13:54:59;;;;;;;4.20;3.40;;;;;;;13.01;27.72;100072.91;6844148;28;20215;-76
2022/02/27 13:58:26;;;;;;;5.83;3.30;;;;;;;11.62;30.03;100083.66;6835671;29;20606;-77
2022/02/27 14:01:47;;;;;;;5.07;3.13;;;;;;;11.86;28.89;99958.34;6859781;28;20236;-77
2022/02/27 14:05:16;;;;;;;4.00;3.07;;;;;;;12.44;28.96;99998.84;6862074;28;20209;-75
2022/02/27 14:08:39;;;;;;;3.60;3.20;;;;;;;12.49;28.09;100051.38;6861534;28;20692;-80
2022/02/27 14:12:04;;;;;;;4.20;3.10;;;;;;;12.14;28.54;100051.25;6844451;28;20205;-76
2022/02/27 14:15:34;;;;;;;3.23;2.93;;;;;;;12.02;29.24;100026.56;6861177;28;20233;-74
2022/02/27 14:18:57;;;;;;;3.40;3.10;;;;;;;12.02;28.09;100013.03;6861443;28;20228;-75
2022/02/27 14:22:20;;;;;;;3.67;3.23;;;;;;;12.68;28.21;99998.56;6844415;28;20220;-75
2022/02/27 14:25:50;;;;;;;3.63;3.23;;;;;;;11.86;29.15;100020.47;6861067;28;20714;-74
2022/02/27 14:29:13;;;;;;;3.33;3.00;;;;;;;11.97;29.36;100033.53;6861635;28;20216;-74
2022/02/27 14:32:35;;;;;;;4.20;3.57;;;;;;;11.31;29.92;100019.91;6860696;28;20272;-74
2022/02/27 14:35:57;;;;;;;5.03;3.20;;;;;;;12.09;29.38;100038.31;6860617;28;20225;-74
2022/02/27 14:39:22;;;;;;;5.13;3.53;;;;;;;11.87;30.27;100044.59;6861474;28;20213;-74
2022/02/27 14:42:44;;;;;;;3.90;3.50;;;;;;;11.90;29.60;100013.66;6860637;28;20235;-74
2022/02/27 14:46:05;;;;;;;5.13;3.47;;;;;;;11.86;29.80;99952.94;6861010;28;20267;-82
2022/02/27 14:49:27;;;;;;;4.10;3.40;;;;;;;11.70;29.68;99964.72;6857383;28;20225;-80
2022/02/27 14:52:49;;;;;;;4.00;3.10;;;;;;;11.63;29.88;100004.31;6858614;28;20587;-79
2022/02/27 14:56:12;;;;;;;5.07;3.87;;;;;;;11.04;30.62;99926.00;6860518;28;20216;-86
2022/02/27 14:59:34;;;;;;;4.30;3.33;;;;;;;12.17;29.72;100007.66;6860546;28;20686;-74
2022/02/27 15:02:56;;;;;;;3.63;3.33;;;;;;;11.08;30.72;99992.06;6859669;28;20245;-75
2022/02/27 15:06:18;;;;;;;5.23;3.53;;;;;;;11.99;30.62;99997.19;6860978;28;20237;-74
2022/02/27 15:09:40;;;;;;;4.57;3.50;;;;;;;11.96;29.62;99929.13;6859934;28;20226;-77
2022/02/27 15:13:03;;;;;;;4.13;3.53;;;;;;;11.42;29.40;99958.22;6860581;28;20324;-76
2022/02/27 15:16:24;;;;;;;5.00;3.67;;;;;;;11.23;31.06;99972.19;6859835;28;20230;-76
2022/02/27 15:19:46;;;;;;;4.00;3.60;;;;;;;12.05;29.49;100004.53;6860355;28;20213;-77
2022/02/27 15:23:08;;;;;;;5.53;3.60;;;;;;;11.82;29.60;100027.28;6860813;28;20215;-78
2022/02/27 15:26:31;;;;;;;4.33;3.33;;;;;;;11.03;30.42;99935.94;6860260;28;20229;-76
2022/02/27 15:29:54;;;;;;;3.63;3.20;;;;;;;11.10;30.39;99998.13;6860050;28;20213;-81
2022/02/27 15:33:16;;;;;;;3.73;3.43;;;;;;;11.50;30.20;100054.50;6856828;28;20230;-76
2022/02/27 15:36:38;;;;;;;4.13;2.90;;;;;;;12.15;29.29;100044.84;6846586;28;20698;-76
2022/02/27 15:39:59;;;;;;;5.53;3.53;;;;;;;12.12;28.96;100029.00;6865673;28;20209;-76
2022/02/27 15:43:21;;;;;;;3.70;3.30;;;;;;;11.25;29.80;100031.41;6867442;28;20201;-76
2022/02/27 15:46:44;;;;;;;3.90;3.50;;;;;;;11.39;30.28;100022.56;6860836;28;20306;-76
2022/02/27 15:50:07;;;;;;;4.97;3.63;;;;;;;11.47;30.31;100034.13;6856647;28;20655;-76
2022/02/27 15:53:28;;;;;;;4.43;3.67;;;;;;;11.14;29.90;99953.56;6852226;28;20229;-76
2022/02/27 15:56:50;;;;;;;4.27;3.43;;;;;;;11.74;29.23;100006.56;6838288;29;20217;-76
2022/02/27 16:00:13;;;;;;;5.20;3.83;;;;;;;11.82;28.46;100024.56;6838292;29;20217;-76
2022/02/27 16:03:36;;;;;;;4.53;3.73;;;;;;;11.24;28.87;99981.16;6844001;28;20265;-76
2022/02/27 16:06:58;;;;;;;8.47;3.60;;;;;;;11.30;29.82;100013.69;6841532;28;20707;-76
2022/02/27 16:10:21;;;;;;;3.47;3.17;;;;;;;11.62;29.70;100024.22;6843142;28;20233;-76
2022/02/27 16:13:42;;;;;;;4.50;3.30;;;;;;;11.37;29.79;100038.06;6866412;28;20224;-76
2022/02/27 16:17:04;;;;;;;5.50;4.00;;;;;;;11.03;30.23;100016.06;6866452;28;20209;-75
2022/02/27 16:20:27;;;;;;;5.37;3.57;;;;;;;11.17;30.92;100016.13;6866041;28;20213;-75
2022/02/27 16:23:49;;;;;;;6.50;3.67;;;;;;;11.20;30.67;100017.63;6866630;28;20542;-76
2022/02/27 16:27:11;;;;;;;3.70;3.40;;;;;;;9.63;31.30;99859.84;6866418;28;20229;-76
2022/02/27 16:30:32;;;;;;;4.07;3.67;;;;;;;10.99;30.70;100026.34;6864879;28;20318;-76
2022/02/27 16:33:54;;;;;;;4.03;3.43;;;;;;;10.84;30.28;99982.28;6860651;28;20237;-75
2022/02/27 16:37:17;;;;;;;4.93;4.00;;;;;;;11.03;30.95;100027.69;6852500;28;20208;-71
2022/02/27 16:40:39;;;;;;;7.70;4.70;;;;;;;11.40;30.07;100041.25;6864474;28;20224;-81
2022/02/27 16:44:01;;;;;;;4.00;3.60;;;;;;;10.84;31.08;100043.47;6864626;28;20659;-75
2022/02/27 16:47:22;;;;;;;5.00;4.50;;;;;;;10.96;31.16;100040.22;6863306;28;20373;-76
2022/02/27 16:50:44;;;;;;;5.03;3.93;;;;;;;11.34;30.40;100033.88;6863711;28;20217;-75
2022/02/27 16:54:07;;;;;;;6.57;4.50;;;;;;;10.39;31.25;99998.34;6863990;28;20209;-75
2022/02/27 16:57:29;;;;;;;4.57;4.03;;;;;;;11.18;30.97;100050.22;6872157;28;20567;-76
2022/02/27 17:00:52;;;;;;;4.50;3.80;;;;;;;10.69;31.42;100042.56;6864879;28;20555;-76
2022/02/27 17:04:14;;;;;;;5.77;4.10;;;;;;;10.15;32.31;100032.66;6864938;28;20234;-76
2022/02/27 17:07:36;;;;;;;5.73;5.10;;;;;;;10.51;32.65;100064.38;6864931;28;20276;-75
2022/02/27 17:11:00;;;;;;;6.13;4.40;;;;;;;10.73;32.89;100077.09;6864441;28;20212;-76
2022/02/27 17:14:21;;;;;;;6.70;4.80;;;;;;;10.63;32.61;100079.16;6865054;28;20524;-78
2022/02/27 17:17:43;;;;;;;5.93;4.73;;;;;;;10.49;32.79;100076.34;6864633;28;20225;-75
2022/02/27 17:21:05;;;;;;;6.10;4.77;;;;;;;10.18;33.11;100040.38;6862687;28;20232;-75
2022/02/27 17:24:26;;;;;;;6.00;4.83;;;;;;;10.18;32.03;99986.50;6841159;28;20221;-75
2022/02/27 17:27:51;;;;;;;5.57;4.87;;;;;;;10.90;32.05;100075.16;6864794;28;20233;-75
2022/02/27 17:31:12;;;;;;;6.87;4.70;;;;;;;10.89;32.31;100085.13;6864290;28;20239;-76
2022/02/27 17:34:34;;;;;;;9.87;7.10;;;;;;;9.89;33.08;100046.31;6864768;28;20216;-75
2022/02/27 17:37:56;;;;;;;19.07;10.43;;;;;;;10.23;32.75;100032.63;6864332;28;20690;-75
2022/02/27 17:41:18;;;;;;;15.50;10.03;;;;;;;10.84;32.82;100103.69;6863263;28;20232;-75
2022/02/27 17:44:41;;;;;;;6.13;5.03;;;;;;;9.55;32.82;99854.50;6864186;28;20256;-76
2022/02/27 17:48:03;;;;;;;5.60;4.27;;;;;;;10.48;32.80;100107.88;6863722;28;20233;-76
2022/02/27 17:51:25;;;;;;;7.37;4.20;;;;;;;10.36;33.17;100094.91;6861895;28;20745;-76
2022/02/27 17:54:46;;;;;;;6.57;5.43;;;;;;;10.39;32.90;100056.84;6860371;28;20222;-76
2022/02/27 17:58:08;;;;;;;7.53;4.70;;;;;;;9.67;34.49;100121.56;6864211;28;20217;-76
2022/02/27 18:01:31;;;;;;;5.57;4.37;;;;;;;9.80;34.62;100124.63;6862796;28;20209;-76
2022/02/27 18:04:53;;;;;;;6.63;4.43;;;;;;;9.21;35.33;100089.88;6863677;28;20538;-76
2022/02/27 18:08:16;;;;;;;5.30;4.80;;;;;;;9.02;35.63;100091.00;6862689;28;20229;-75
2022/02/27 18:11:37;;;;;;;7.43;4.63;;;;;;;9.61;35.17;100098.00;6862237;28;20248;-75
2022/02/27 18:14:59;;;;;;;5.93;4.53;;;;;;;9.61;34.82;100071.91;6862063;28;20228;-76
2022/02/27 18:18:22;;;;;;;6.27;5.00;;;;;;;8.37;35.74;99967.28;6842555;28;20234;-75
2022/02/27 18:21:44;;;;;;;6.90;4.70;;;;;;;9.45;35.90;100119.53;6858848;28;20224;-75
2022/02/27 18:25:07;;;;;;;5.17;4.67;;;;;;;9.16;35.71;100132.59;6863174;28;20241;-75
2022/02/27 18:28:28;;;;;;;7.27;4.97;;;;;;;9.46;35.99;100111.28;6862198;28;20232;-75
2022/02/27 18:31:50;;;;;;;5.47;4.70;;;;;;;9.56;35.49;100095.00;6862551;28;20217;-75
2022/02/27 18:35:13;;;;;;;6.13;5.20;;;;;;;9.69;35.14;100108.78;6870086;28;20227;-74
2022/02/27 18:38:35;;;;;;;8.57;6.10;;;;;;;8.89;35.45;100049.44;6863104;28;20596;-76
2022/02/27 18:42:00;;;;;;;7.70;5.83;;;;;;;9.44;35.73;100134.84;6862651;28;20225;-80
2022/02/27 18:45:22;;;;;;;7.67;6.00;;;;;;;8.77;36.49;100142.19;6862656;28;20220;-75
2022/02/27 18:48:44;;;;;;;8.33;5.83;;;;;;;8.89;36.80;100103.25;6862750;28;20714;-75
2022/02/27 18:52:07;;;;;;;8.03;5.67;;;;;;;9.44;35.55;100137.53;6862185;28;20209;-76
2022/02/27 18:55:29;;;;;;;8.80;5.70;;;;;;;9.32;36.05;100127.22;6862617;28;20212;-75
2022/02/27 18:58:51;;;;;;;8.93;5.80;;;;;;;8.84;37.10;100132.47;6837096;28;20233;-75
2022/02/27 19:02:12;;;;;;;5.87;5.10;;;;;;;8.27;35.96;99965.75;6835871;29;20216;-75
2022/02/27 19:05:34;;;;;;;6.90;5.73;;;;;;;9.13;36.41;100141.84;6835796;29;20589;-75
2022/02/27 19:08:57;;;;;;;7.47;5.70;;;;;;;9.21;36.20;100130.25;6851059;28;20583;-77
2022/02/27 19:12:19;;;;;;;6.60;5.40;;;;;;;9.07;35.55;100106.66;6860149;28;20726;-77
2022/02/27 19:15:41;;;;;;;7.87;6.20;;;;;;;8.75;36.08;100122.69;6836739;28;20220;-77
2022/02/27 19:19:03;;;;;;;8.10;5.93;;;;;;;8.84;36.37;100155.84;6851982;28;20268;-77
2022/02/27 19:22:25;;;;;;;8.60;5.37;;;;;;;9.57;35.25;100158.59;6862587;28;20555;-77
2022/02/27 19:25:48;;;;;;;8.60;7.60;;;;;;;9.74;35.13;100147.66;6862547;28;20213;-78
2022/02/27 19:29:10;;;;;;;8.00;5.97;;;;;;;9.17;36.22;100153.09;6861924;28;20233;-78
2022/02/27 19:32:31;;;;;;;16.57;7.83;;;;;;;8.62;36.52;100124.13;6860742;28;20695;-77
2022/02/27 19:35:53;;;;;;;17.17;12.47;;;;;;;8.42;37.48;100160.31;6861601;28;20204;-77
2022/02/27 19:39:15;;;;;;;31.83;18.10;;;;;;;8.10;37.36;100114.38;6860732;28;20208;-77
2022/02/27 19:42:38;;;;;;;10.80;7.20;;;;;;;8.13;38.32;100167.81;6852270;28;20230;-77
2022/02/27 19:46:01;;;;;;;16.40;13.00;;;;;;;7.41;38.73;100090.19;6858675;28;20239;-77
2022/02/27 19:49:23;;;;;;;10.73;8.97;;;;;;;8.48;37.40;100141.69;6835753;28;20232;-77
2022/02/27 19:52:44;;;;;;;13.20;9.10;;;;;;;8.42;37.57;100163.84;6834571;29;20584;-77
2022/02/27 19:56:06;;;;;;;7.50;6.57;;;;;;;8.28;37.91;100168.94;6835428;29;20574;-77
2022/02/27 19:59:29;;;;;;;35.63;21.10;;;;;;;8.35;37.68;100173.53;6835263;29;20206;-77
2022/02/27 20:02:53;;;;;;;12.00;9.67;;;;;;;8.56;37.21;100163.25;6834680;29;20827;-77
2022/02/27 20:06:15;;;;;;;11.43;8.50;;;;;;;8.06;37.58;100105.81;6833409;29;20206;-77
2022/02/27 20:13:18;;;;;;;17.27;11.33;;;;;;;8.72;37.32;100157.94;6844704;28;20678;-77
2022/02/27 20:16:41;;;;;;;12.50;10.00;;;;;;;8.05;38.34;100146.25;6860879;28;20216;-77
2022/02/27 20:20:03;;;;;;;10.03;7.27;;;;;;;8.48;37.60;100132.81;6860883;28;20213;-77
2022/02/27 20:23:27;;;;;;;8.77;6.97;;;;;;;8.04;38.15;100168.72;6862312;28;20237;-77
2022/02/27 20:26:49;;;;;;;12.83;8.33;;;;;;;8.28;37.41;100161.75;6866385;28;20209;-77
2022/02/27 20:30:11;;;;;;;10.57;9.40;;;;;;;8.37;37.35;100150.03;6868327;28;20566;-77
2022/02/27 20:33:34;;;;;;;12.30;8.37;;;;;;;8.70;37.18;100162.66;6866108;28;20237;-77
2022/02/27 20:36:56;;;;;;;8.33;6.93;;;;;;;8.60;37.29;100158.41;6864285;28;20220;-77
2022/02/27 20:40:18;;;;;;;9.90;8.20;;;;;;;8.51;37.33;100159.34;6866464;28;20585;-77
2022/02/27 20:43:42;;;;;;;11.47;6.77;;;;;;;8.47;37.19;100168.72;6866500;28;20639;-77
2022/02/27 20:47:04;;;;;;;12.80;8.43;;;;;;;7.99;37.58;100087.78;6866127;28;20244;-77
2022/02/27 20:50:28;;;;;;;7.87;6.60;;;;;;;8.33;37.38;100154.06;6865833;28;20225;-77
2022/02/27 20:53:49;;;;;;;10.50;6.70;;;;;;;6.81;38.27;99999.78;6865722;28;20216;-77
2022/02/27 20:57:11;;;;;;;7.83;6.23;;;;;;;7.50;39.13;100140.25;6864264;28;20233;-77
2022/02/27 21:00:33;;;;;;;6.80;6.07;;;;;;;7.25;39.25;100142.84;6863459;28;20215;-77
2022/02/27 21:03:55;;;;;;;10.63;6.00;;;;;;;7.27;38.84;100139.03;6863811;28;20682;-78
2022/02/27 21:07:18;;;;;;;8.57;6.07;;;;;;;7.46;38.67;100146.06;6840437;28;20233;-77
2022/02/27 21:10:40;;;;;;;8.17;6.43;;;;;;;7.46;38.12;100128.13;6837005;28;20220;-77
2022/02/27 21:14:02;;;;;;;8.43;6.77;;;;;;;7.57;38.61;100148.53;6846528;28;20720;-77
2022/02/27 21:17:23;;;;;;;8.53;6.50;;;;;;;8.02;37.61;100143.88;6863564;28;20220;-77
2022/02/27 21:20:45;;;;;;;7.03;5.93;;;;;;;8.02;37.64;100092.84;6863102;28;20352;-78
2022/02/27 21:24:09;;;;;;;9.20;7.40;;;;;;;8.22;36.82;100086.28;6862970;28;20596;-77
2022/02/27 21:27:30;;;;;;;9.90;6.50;;;;;;;7.66;36.81;100000.81;6863563;28;20243;-77
2022/02/27 21:30:52;;;;;;;7.60;6.50;;;;;;;7.84;37.34;100071.41;6862616;28;20581;-77
2022/02/27 21:34:14;;;;;;;9.20;6.53;;;;;;;8.25;37.13;100129.78;6862553;28;20237;-77
2022/02/27 21:37:35;;;;;;;11.83;7.90;;;;;;;7.93;37.50;100118.81;6861698;28;20209;-77
2022/02/27 21:41:00;;;;;;;7.97;7.00;;;;;;;6.99;38.77;100129.31;6862489;28;20219;-77
2022/02/27 21:44:23;;;;;;;8.07;6.20;;;;;;;7.08;39.03;100132.94;6863219;28;20682;-77
2022/02/27 21:47:45;;;;;;;8.83;6.10;;;;;;;6.77;39.44;100094.88;6862491;28;20324;-77
2022/02/27 21:51:06;;;;;;;9.30;7.07;;;;;;;6.91;39.66;100121.19;6861996;28;20287;-77
2022/02/27 21:54:28;;;;;;;8.57;6.33;;;;;;;6.77;39.17;100062.69;6845195;28;20217;-77
2022/02/27 21:57:51;;;;;;;8.10;5.83;;;;;;;7.09;39.30;100110.47;6862151;28;20205;-77
2022/02/27 22:01:20;;;;;;;8.70;6.67;;;;;;;6.64;39.40;100061.38;6890353;23;20231;-83
2022/02/27 23:30:13;;;;;;;8.00;7.20;;;;;;;5.74;43.82;100155.78;6709021;29;20237;-83
2022/02/27 23:33:37;;;;;;;7.80;7.00;;;;;;;5.99;42.12;100136.47;6759216;29;20237;-84
2022/02/27 23:37:00;;;;;;;8.53;6.97;;;;;;;4.96;44.97;100105.06;6795994;29;20237;-83
2022/02/27 23:40:22;;;;;;;7.77;6.33;;;;;;;5.23;45.24;100156.03;6799689;29;20219;-84
2022/02/27 23:43:45;;;;;;;10.03;6.93;;;;;;;5.11;45.16;100125.06;6791845;29;20232;-84
2022/02/27 23:47:09;;;;;;;12.23;8.00;;;;;;;5.21;45.46;100157.16;6791314;29;20213;-84
2022/02/27 23:50:36;;;;;;;8.07;6.20;;;;;;;5.46;44.68;100138.75;6789235;29;20231;-84
2022/02/27 23:53:57;;;;;;;10.50;6.63;;;;;;;5.52;44.76;100167.63;6790918;29;20309;-83
2022/02/27 23:57:19;;;;;;;8.43;6.27;;;;;;;5.46;44.70;100172.66;6815129;28;20211;-84
